createdAt,value
2018-01-17T00:00:10.810Z,78.36
2018-01-17T00:01:16.565Z,78.36
2018-01-17T00:02:22.275Z,78.40
2018-01-17T00:03:27.986Z,78.35
2018-01-17T00:04:33.714Z,78.42
2018-01-17T00:05:39.453Z,78.40
2018-01-17T00:06:46.201Z,78.39
2018-01-17T00:07:51.934Z,78.55
2018-01-17T00:08:58.024Z,78.65
2018-01-17T00:10:03.748Z,78.63
2018-01-17T00:11:10.113Z,78.73
2018-01-17T00:12:15.851Z,78.71
2018-01-17T00:13:21.599Z,78.65
2018-01-17T00:14:27.370Z,78.73
2018-01-17T00:15:33.849Z,78.81
2018-01-17T00:16:39.571Z,78.82
2018-01-17T00:17:45.299Z,78.83
2018-01-17T00:18:51.789Z,78.83
2018-01-17T00:19:57.499Z,78.81
2018-01-17T00:21:04.080Z,78.73
2018-01-17T00:22:09.903Z,78.64
2018-01-17T00:23:16.435Z,78.72
2018-01-17T00:24:22.159Z,78.94
2018-01-17T00:25:27.875Z,79.05
2018-01-17T00:26:33.631Z,78.99
2018-01-17T00:27:39.361Z,79.01
2018-01-17T00:28:45.118Z,78.95
2018-01-17T00:29:50.831Z,79.02
2018-01-17T00:30:56.547Z,78.97
2018-01-17T00:32:03.047Z,79.09
2018-01-17T00:33:08.783Z,79.11
2018-01-17T00:34:14.560Z,79.17
2018-01-17T00:35:20.330Z,79.24
2018-01-17T00:36:26.813Z,79.23
2018-01-17T00:37:32.536Z,79.21
2018-01-17T00:38:39.037Z,79.15
2018-01-17T00:39:44.788Z,79.14
2018-01-17T00:40:50.761Z,79.11
2018-01-17T00:41:56.492Z,79.11
2018-01-17T00:43:02.213Z,79.13
2018-01-17T00:44:07.921Z,79.08
2018-01-17T00:45:13.689Z,79.24
2018-01-17T00:46:19.433Z,79.18
2018-01-17T00:47:25.150Z,79.18
2018-01-17T00:48:30.871Z,79.15
2018-01-17T00:49:37.383Z,79.21
2018-01-17T00:50:43.187Z,79.16
2018-01-17T00:51:48.900Z,79.11
2018-01-17T00:52:55.394Z,79.07
2018-01-17T00:54:01.108Z,79.04
2018-01-17T00:55:06.515Z,79.08
2018-01-17T00:56:13.058Z,79.17
2018-01-17T00:57:19.023Z,79.17
2018-01-17T00:58:26.234Z,79.18
2018-01-17T00:59:31.960Z,79.14
2018-01-17T01:00:38.442Z,79.09
2018-01-17T01:01:44.177Z,79.07
2018-01-17T01:02:49.920Z,79.07
2018-01-17T01:03:55.636Z,79.12
2018-01-17T01:05:02.119Z,79.23
2018-01-17T01:06:07.831Z,79.27
2018-01-17T01:07:15.072Z,79.32
2018-01-17T01:08:20.805Z,79.34
2018-01-17T01:09:26.514Z,79.33
2018-01-17T01:10:32.254Z,79.32
2018-01-17T01:11:37.968Z,79.39
2018-01-17T01:12:44.489Z,79.29
2018-01-17T01:13:50.239Z,79.27
2018-01-17T01:14:55.974Z,79.34
2018-01-17T01:16:01.735Z,79.37
2018-01-17T01:17:07.457Z,79.37
2018-01-17T01:18:13.594Z,79.36
2018-01-17T01:19:19.316Z,79.28
2018-01-17T01:20:25.033Z,79.30
2018-01-17T01:21:30.750Z,79.15
2018-01-17T01:22:37.384Z,79.24
2018-01-17T01:23:43.196Z,79.26
2018-01-17T01:24:48.935Z,79.19
2018-01-17T01:25:54.672Z,79.18
2018-01-17T01:27:01.155Z,79.13
2018-01-17T01:28:06.895Z,79.19
2018-01-17T01:29:12.650Z,79.18
2018-01-17T01:30:18.397Z,79.20
2018-01-17T01:31:24.112Z,79.06
2018-01-17T01:32:29.839Z,79.06
2018-01-17T01:33:35.582Z,79.09
2018-01-17T01:34:41.338Z,79.12
2018-01-17T01:35:47.060Z,79.11
2018-01-17T01:36:52.834Z,79.07
2018-01-17T01:37:58.583Z,79.16
2018-01-17T01:39:03.785Z,79.25
2018-01-17T01:40:09.533Z,79.21
2018-01-17T01:41:15.266Z,79.24
2018-01-17T01:42:20.644Z,79.25
2018-01-17T01:43:26.371Z,79.24
2018-01-17T01:44:32.106Z,79.16
2018-01-17T01:45:37.850Z,79.10
2018-01-17T01:46:43.599Z,79.11
2018-01-17T01:47:49.317Z,79.08
2018-01-17T01:49:02.652Z,79.06
2018-01-17T01:50:08.375Z,79.04
2018-01-17T01:51:14.196Z,79.01
2018-01-17T01:52:20.995Z,78.98
2018-01-17T01:53:26.712Z,78.98
2018-01-17T01:54:32.456Z,78.96
2018-01-17T01:55:38.177Z,78.90
2018-01-17T01:56:44.682Z,78.82
2018-01-17T01:57:50.567Z,78.79
2018-01-17T01:58:56.310Z,78.78
2018-01-17T02:00:02.071Z,78.67
2018-01-17T02:01:07.438Z,78.61
2018-01-17T02:02:13.198Z,78.58
2018-01-17T02:03:19.002Z,78.53
2018-01-17T02:04:24.712Z,78.46
2018-01-17T02:05:31.183Z,78.40
2018-01-17T02:06:36.895Z,78.38
2018-01-17T02:07:43.406Z,78.35
2018-01-17T02:08:49.136Z,78.28
2018-01-17T02:09:54.859Z,78.24
2018-01-17T02:11:01.362Z,78.18
2018-01-17T02:12:07.135Z,78.08
2018-01-17T02:13:14.386Z,77.97
2018-01-17T02:14:20.133Z,77.94
2018-01-17T02:15:25.870Z,77.90
2018-01-17T02:16:31.606Z,77.86
2018-01-17T02:17:37.347Z,77.77
2018-01-17T02:18:43.186Z,77.79
2018-01-17T02:19:48.918Z,77.80
2018-01-17T02:20:54.639Z,77.73
2018-01-17T02:22:00.358Z,77.69
2018-01-17T02:23:06.856Z,77.58
2018-01-17T02:24:12.592Z,77.54
2018-01-17T02:25:18.310Z,77.51
2018-01-17T02:26:24.024Z,77.49
2018-01-17T02:27:29.749Z,77.50
2018-01-17T02:28:35.471Z,77.48
2018-01-17T02:29:41.226Z,77.45
2018-01-17T02:30:46.958Z,77.51
2018-01-17T02:31:52.678Z,77.58
2018-01-17T02:32:58.436Z,77.66
2018-01-17T02:34:04.153Z,77.69
2018-01-17T02:35:09.928Z,77.66
2018-01-17T02:36:15.639Z,77.76
2018-01-17T02:37:21.379Z,77.72
2018-01-17T02:38:27.103Z,77.81
2018-01-17T02:39:49.723Z,77.84
2018-01-17T02:40:56.270Z,77.88
2018-01-17T02:42:01.992Z,77.89
2018-01-17T02:43:08.699Z,77.90
2018-01-17T02:44:15.217Z,77.91
2018-01-17T02:45:20.979Z,77.89
2018-01-17T02:46:26.730Z,77.88
2018-01-17T02:47:33.235Z,77.82
2018-01-17T02:48:38.968Z,77.78
2018-01-17T02:49:44.676Z,77.74
2018-01-17T02:50:51.152Z,77.75
2018-01-17T02:51:56.908Z,77.73
2018-01-17T02:53:02.638Z,77.77
2018-01-17T02:54:08.384Z,77.84
2018-01-17T02:55:14.118Z,77.84
2018-01-17T02:56:19.835Z,77.82
2018-01-17T02:57:26.391Z,77.82
2018-01-17T02:58:32.882Z,77.79
2018-01-17T02:59:38.435Z,77.83
2018-01-17T03:00:44.147Z,77.76
2018-01-17T03:01:49.937Z,77.70
2018-01-17T03:02:55.672Z,77.69
2018-01-17T03:04:01.396Z,77.64
2018-01-17T03:05:07.144Z,77.64
2018-01-17T03:06:12.853Z,77.58
2018-01-17T03:07:20.170Z,77.57
2018-01-17T03:08:25.970Z,77.56
2018-01-17T03:09:32.439Z,77.54
2018-01-17T03:10:38.156Z,77.50
2018-01-17T03:11:44.665Z,77.48
2018-01-17T03:12:50.378Z,77.44
2018-01-17T03:13:56.139Z,77.44
2018-01-17T03:15:01.871Z,77.41
2018-01-17T03:16:07.607Z,77.30
2018-01-17T03:17:13.346Z,77.24
2018-01-17T03:18:19.175Z,77.16
2018-01-17T03:19:24.928Z,77.16
2018-01-17T03:20:30.635Z,77.15
2018-01-17T03:21:37.124Z,77.14
2018-01-17T03:22:42.840Z,77.15
2018-01-17T03:23:49.332Z,77.19
2018-01-17T03:24:55.073Z,77.20
2018-01-17T03:26:00.806Z,77.20
2018-01-17T03:27:06.517Z,77.18
2018-01-17T03:28:13.072Z,77.30
2018-01-17T03:29:18.799Z,77.32
2018-01-17T03:30:24.556Z,77.32
2018-01-17T03:31:30.295Z,77.32
2018-01-17T03:32:36.038Z,77.25
2018-01-17T03:33:41.767Z,77.22
2018-01-17T03:34:47.483Z,77.17
2018-01-17T03:35:53.240Z,77.22
2018-01-17T03:36:58.955Z,77.23
2018-01-17T03:38:04.687Z,77.20
2018-01-17T03:39:10.424Z,77.27
2018-01-17T03:40:16.156Z,77.22
2018-01-17T03:41:21.896Z,77.12
2018-01-17T03:42:27.596Z,77.05
2018-01-17T03:43:33.364Z,77.05
2018-01-17T03:44:39.857Z,77.08
2018-01-17T03:45:45.632Z,77.06
2018-01-17T03:46:51.580Z,77.12
2018-01-17T03:47:57.296Z,77.14
2018-01-17T03:49:03.007Z,77.16
2018-01-17T03:50:08.744Z,77.14
2018-01-17T03:51:15.310Z,77.16
2018-01-17T03:52:21.911Z,77.22
2018-01-17T03:53:27.479Z,77.28
2018-01-17T03:54:33.767Z,77.25
2018-01-17T03:55:39.601Z,77.32
2018-01-17T03:56:45.159Z,77.38
2018-01-17T03:57:51.201Z,77.41
2018-01-17T03:58:56.918Z,77.42
2018-01-17T04:00:02.646Z,77.46
2018-01-17T04:01:09.123Z,77.53
2018-01-17T04:02:14.876Z,77.51
2018-01-17T04:03:20.646Z,77.49
2018-01-17T04:04:26.396Z,77.53
2018-01-17T04:05:32.107Z,77.53
2018-01-17T04:06:37.821Z,77.61
2018-01-17T04:07:44.300Z,77.58
2018-01-17T04:08:50.050Z,77.57
2018-01-17T04:09:55.832Z,77.49
2018-01-17T04:11:02.314Z,77.55
2018-01-17T04:12:08.555Z,77.45
2018-01-17T04:13:15.070Z,77.30
2018-01-17T04:14:20.829Z,77.25
2018-01-17T04:15:26.536Z,77.16
2018-01-17T04:16:32.269Z,77.15
2018-01-17T04:17:37.996Z,77.13
2018-01-17T04:18:44.490Z,77.04
2018-01-17T04:19:50.305Z,77.00
2018-01-17T04:20:56.201Z,76.99
2018-01-17T04:22:01.924Z,77.01
2018-01-17T04:23:07.655Z,76.91
2018-01-17T04:24:13.404Z,76.88
2018-01-17T04:25:19.164Z,76.90
2018-01-17T04:26:25.649Z,76.84
2018-01-17T04:27:32.163Z,76.86
2018-01-17T04:28:37.906Z,76.85
2018-01-17T04:29:43.636Z,76.81
2018-01-17T04:30:49.392Z,76.83
2018-01-17T04:31:55.200Z,76.75
2018-01-17T04:33:00.806Z,76.77
2018-01-17T04:34:07.549Z,76.85
2018-01-17T04:35:13.270Z,76.86
2018-01-17T04:36:19.076Z,76.83
2018-01-17T04:37:25.378Z,76.77
2018-01-17T04:38:31.086Z,76.77
2018-01-17T04:39:36.486Z,76.78
2018-01-17T04:40:42.205Z,76.76
2018-01-17T04:41:47.944Z,76.70
2018-01-17T04:42:53.652Z,76.66
2018-01-17T04:44:00.156Z,76.65
2018-01-17T04:45:05.867Z,76.64
2018-01-17T04:46:11.602Z,76.63
2018-01-17T04:47:17.335Z,76.58
2018-01-17T04:48:23.093Z,76.54
2018-01-17T04:49:28.822Z,76.50
2018-01-17T04:50:34.560Z,76.44
2018-01-17T04:51:40.279Z,76.39
2018-01-17T04:52:46.052Z,76.30
2018-01-17T04:53:51.790Z,76.23
2018-01-17T04:54:57.517Z,76.11
2018-01-17T04:56:03.250Z,75.99
2018-01-17T04:57:08.975Z,75.88
2018-01-17T04:58:14.953Z,75.70
2018-01-17T04:59:20.696Z,75.59
2018-01-17T05:00:26.481Z,75.53
2018-01-17T05:01:32.960Z,75.47
2018-01-17T05:02:39.244Z,75.41
2018-01-17T05:03:44.988Z,75.32
2018-01-17T05:04:50.708Z,75.26
2018-01-17T05:05:56.419Z,75.20
2018-01-17T05:07:02.918Z,75.11
2018-01-17T05:08:08.668Z,75.07
2018-01-17T05:09:14.413Z,74.96
2018-01-17T05:10:20.151Z,74.94
2018-01-17T05:11:25.880Z,74.86
2018-01-17T05:12:32.031Z,74.87
2018-01-17T05:13:37.932Z,74.89
2018-01-17T05:14:45.206Z,74.87
2018-01-17T05:15:50.931Z,74.81
2018-01-17T05:16:56.659Z,74.77
2018-01-17T05:18:02.390Z,74.70
2018-01-17T05:19:08.402Z,74.68
2018-01-17T05:20:15.020Z,74.60
2018-01-17T05:21:20.913Z,74.54
2018-01-17T05:22:27.456Z,74.53
2018-01-17T05:23:33.955Z,74.58
2018-01-17T05:24:39.701Z,74.58
2018-01-17T05:25:45.459Z,74.58
2018-01-17T05:26:51.196Z,74.52
2018-01-17T05:27:56.938Z,74.48
2018-01-17T05:29:02.681Z,74.44
2018-01-17T05:30:08.395Z,74.40
2018-01-17T05:31:14.156Z,74.40
2018-01-17T05:32:19.872Z,74.34
2018-01-17T05:33:25.606Z,74.31
2018-01-17T05:34:31.307Z,74.33
2018-01-17T05:35:37.043Z,74.25
2018-01-17T05:36:43.210Z,74.19
2018-01-17T05:37:48.960Z,74.16
2018-01-17T05:38:55.468Z,74.17
2018-01-17T05:40:00.882Z,74.25
2018-01-17T05:41:06.943Z,74.31
2018-01-17T05:42:12.525Z,74.36
2018-01-17T05:43:18.248Z,74.34
2018-01-17T05:44:24.031Z,74.25
2018-01-17T05:45:30.506Z,74.19
2018-01-17T05:46:36.217Z,74.18
2018-01-17T05:47:42.748Z,74.29
2018-01-17T05:48:48.486Z,74.41
2018-01-17T05:49:54.231Z,74.59
2018-01-17T05:51:00.014Z,74.87
2018-01-17T05:52:06.487Z,75.06
2018-01-17T05:53:12.222Z,75.28
2018-01-17T05:54:17.923Z,75.65
2018-01-17T05:55:23.672Z,75.92
2018-01-17T05:56:30.183Z,76.10
2018-01-17T05:57:35.908Z,76.40
2018-01-17T05:58:42.184Z,76.53
2018-01-17T05:59:47.895Z,76.71
2018-01-17T06:00:53.524Z,76.88
2018-01-17T06:02:00.023Z,77.01
2018-01-17T06:03:05.433Z,77.13
2018-01-17T06:04:11.193Z,77.45
2018-01-17T06:05:17.183Z,77.59
2018-01-17T06:06:22.891Z,77.75
2018-01-17T06:07:28.616Z,77.94
2018-01-17T06:08:34.350Z,77.98
2018-01-17T06:09:40.126Z,78.25
2018-01-17T06:10:45.648Z,78.37
2018-01-17T06:11:51.363Z,78.52
2018-01-17T06:12:57.067Z,78.51
2018-01-17T06:14:02.807Z,78.45
2018-01-17T06:15:08.557Z,78.38
2018-01-17T06:16:15.038Z,78.40
2018-01-17T06:17:21.375Z,78.33
2018-01-17T06:18:28.258Z,78.25
2018-01-17T06:19:34.100Z,78.15
2018-01-17T06:20:39.962Z,78.08
2018-01-17T06:21:45.824Z,78.13
2018-01-17T06:22:51.623Z,78.08
2018-01-17T06:23:58.163Z,77.99
2018-01-17T06:25:03.901Z,77.84
2018-01-17T06:26:09.671Z,77.86
2018-01-17T06:27:15.391Z,77.88
2018-01-17T06:28:21.882Z,77.89
2018-01-17T06:29:27.622Z,77.95
2018-01-17T06:30:33.363Z,78.05
2018-01-17T06:31:39.129Z,77.99
2018-01-17T06:32:44.837Z,77.89
2018-01-17T06:33:50.555Z,77.74
2018-01-17T06:34:56.289Z,77.65
2018-01-17T06:36:01.997Z,77.69
2018-01-17T06:37:07.758Z,77.60
2018-01-17T06:38:13.476Z,77.57
2018-01-17T06:39:19.196Z,77.64
2018-01-17T06:40:24.940Z,77.58
2018-01-17T06:41:30.648Z,77.53
2018-01-17T06:42:37.148Z,77.39
2018-01-17T06:43:42.856Z,77.40
2018-01-17T06:44:49.339Z,77.36
2018-01-17T06:45:55.073Z,77.34
2018-01-17T06:47:00.812Z,77.28
2018-01-17T06:48:06.552Z,77.17
2018-01-17T06:49:12.289Z,77.12
2018-01-17T06:50:17.825Z,77.06
2018-01-17T06:51:23.578Z,76.89
2018-01-17T06:52:29.310Z,76.75
2018-01-17T06:53:35.070Z,76.62
2018-01-17T06:54:41.111Z,76.61
2018-01-17T06:55:46.639Z,76.63
2018-01-17T06:56:52.373Z,76.69
2018-01-17T06:57:58.107Z,76.61
2018-01-17T06:59:04.608Z,76.58
2018-01-17T07:00:10.413Z,76.61
2018-01-17T07:01:16.145Z,76.75
2018-01-17T07:02:22.621Z,77.08
2018-01-17T07:03:28.338Z,77.17
2018-01-17T07:04:34.632Z,77.43
2018-01-17T07:05:40.350Z,77.48
2018-01-17T07:06:46.081Z,77.63
2018-01-17T07:07:52.570Z,77.78
2018-01-17T07:08:58.294Z,77.92
2018-01-17T07:10:03.872Z,78.28
2018-01-17T07:11:09.813Z,78.53
2018-01-17T07:12:15.767Z,78.71
2018-01-17T07:13:21.311Z,78.76
2018-01-17T07:14:27.052Z,78.87
2018-01-17T07:15:32.618Z,79.12
2018-01-17T07:16:39.113Z,79.29
2018-01-17T07:17:44.846Z,79.43
2018-01-17T07:18:50.570Z,79.50
2018-01-17T07:19:57.070Z,79.52
2018-01-17T07:21:02.826Z,79.61
2018-01-17T07:22:09.336Z,79.62
2018-01-17T07:23:15.052Z,79.58
2018-01-17T07:24:21.533Z,79.77
2018-01-17T07:25:27.276Z,79.83
2018-01-17T07:26:33.035Z,79.89
2018-01-17T07:27:38.742Z,80.04
2018-01-17T07:28:44.473Z,80.19
2018-01-17T07:29:50.975Z,80.17
2018-01-17T07:30:56.706Z,80.03
2018-01-17T07:32:02.436Z,79.94
2018-01-17T07:33:08.175Z,79.90
2018-01-17T07:34:13.903Z,79.83
2018-01-17T07:35:20.398Z,79.74
2018-01-17T07:36:26.143Z,79.61
2018-01-17T07:37:31.930Z,79.51
2018-01-17T07:38:38.617Z,79.31
2018-01-17T07:39:45.111Z,79.03
2018-01-17T07:40:50.850Z,78.83
2018-01-17T07:41:57.337Z,78.58
2018-01-17T07:43:03.168Z,78.35
2018-01-17T07:44:08.919Z,77.88
2018-01-17T07:45:14.647Z,77.50
2018-01-17T07:46:20.371Z,77.43
2018-01-17T07:47:26.110Z,77.34
2018-01-17T07:48:31.870Z,77.36
2018-01-17T07:49:37.656Z,77.42
2018-01-17T07:50:44.153Z,77.43
2018-01-17T07:51:49.862Z,77.36
2018-01-17T07:52:55.592Z,77.36
2018-01-17T07:54:01.913Z,77.33
2018-01-17T07:55:07.464Z,77.19
2018-01-17T07:56:14.014Z,77.20
2018-01-17T07:57:20.758Z,76.97
2018-01-17T07:58:26.489Z,76.73
2018-01-17T07:59:32.246Z,76.66
2018-01-17T08:00:37.960Z,76.64
2018-01-17T08:01:43.673Z,76.65
2018-01-17T08:02:50.167Z,76.59
2018-01-17T08:03:56.649Z,76.50
2018-01-17T08:05:02.416Z,76.39
2018-01-17T08:06:08.327Z,76.23
2018-01-17T08:07:14.070Z,76.22
2018-01-17T08:08:19.807Z,76.21
2018-01-17T08:09:25.554Z,76.33
2018-01-17T08:10:32.066Z,76.59
2018-01-17T08:11:38.577Z,76.78
2018-01-17T08:12:44.295Z,76.69
2018-01-17T08:13:50.055Z,76.47
2018-01-17T08:14:56.547Z,76.48
2018-01-17T08:16:02.301Z,76.49
2018-01-17T08:17:09.167Z,76.57
2018-01-17T08:18:15.650Z,76.51
2018-01-17T08:19:21.379Z,76.29
2018-01-17T08:20:27.913Z,76.36
2018-01-17T08:21:33.651Z,76.25
2018-01-17T08:22:39.579Z,76.10
2018-01-17T08:23:45.296Z,76.02
2018-01-17T08:24:51.007Z,76.08
2018-01-17T08:25:57.311Z,75.99
2018-01-17T08:27:03.070Z,75.90
2018-01-17T08:28:08.788Z,75.66
2018-01-17T08:29:14.505Z,75.51
2018-01-17T08:30:20.253Z,75.47
2018-01-17T08:31:26.736Z,75.49
2018-01-17T08:32:32.477Z,75.37
2018-01-17T08:33:38.212Z,75.41
2018-01-17T08:34:43.927Z,75.23
2018-01-17T08:35:49.630Z,75.00
2018-01-17T08:36:55.341Z,75.08
2018-01-17T08:38:01.103Z,75.13
2018-01-17T08:39:06.492Z,75.01
2018-01-17T08:40:12.230Z,74.92
2018-01-17T08:41:17.943Z,74.64
2018-01-17T08:42:23.803Z,74.47
2018-01-17T08:43:30.531Z,74.27
2018-01-17T08:44:38.753Z,73.92
2018-01-17T08:45:44.575Z,73.85
2018-01-17T08:46:50.425Z,73.63
2018-01-17T08:47:56.926Z,73.55
2018-01-17T08:49:02.648Z,73.39
2018-01-17T08:50:08.372Z,73.29
2018-01-17T08:51:14.854Z,72.89
2018-01-17T08:52:20.564Z,72.62
2018-01-17T08:53:27.064Z,72.40
2018-01-17T08:54:32.814Z,72.18
2018-01-17T08:55:38.563Z,72.07
2018-01-17T08:56:44.294Z,71.99
2018-01-17T08:57:50.043Z,71.96
2018-01-17T08:58:55.807Z,71.52
2018-01-17T09:00:01.565Z,71.07
2018-01-17T09:01:08.067Z,70.89
2018-01-17T09:02:13.773Z,70.74
2018-01-17T09:03:20.271Z,70.55
2018-01-17T09:04:26.080Z,70.21
2018-01-17T09:05:32.605Z,69.29
2018-01-17T09:06:38.340Z,68.90
2018-01-17T09:07:44.046Z,67.81
2018-01-17T09:08:49.758Z,66.82
2018-01-17T09:09:56.243Z,66.26
2018-01-17T09:11:01.979Z,66.22
2018-01-17T09:12:07.729Z,66.11
2018-01-17T09:13:13.443Z,65.98
2018-01-17T09:14:19.939Z,65.07
2018-01-17T09:15:25.694Z,64.37
2018-01-17T09:16:31.437Z,63.81
2018-01-17T09:17:37.163Z,63.36
2018-01-17T09:18:42.879Z,62.68
2018-01-17T09:19:48.595Z,62.50
2018-01-17T09:20:55.115Z,62.40
2018-01-17T09:22:00.908Z,61.95
2018-01-17T09:23:07.401Z,61.32
2018-01-17T09:24:13.124Z,60.74
2018-01-17T09:25:18.831Z,60.73
2018-01-17T09:26:25.330Z,60.77
2018-01-17T09:27:31.253Z,60.19
2018-01-17T09:28:37.750Z,60.44
2018-01-17T09:29:43.478Z,60.45
2018-01-17T09:30:49.208Z,60.25
2018-01-17T09:31:54.935Z,60.20
2018-01-17T09:33:00.694Z,60.00
2018-01-17T09:34:06.086Z,59.73
2018-01-17T09:35:12.781Z,59.37
2018-01-17T09:36:18.507Z,58.91
2018-01-17T09:37:25.002Z,58.85
2018-01-17T09:38:30.755Z,58.68
2018-01-17T09:39:36.478Z,58.57
2018-01-17T09:40:42.184Z,58.41
2018-01-17T09:41:48.678Z,58.86
2018-01-17T09:42:54.407Z,59.05
2018-01-17T09:44:00.136Z,59.61
2018-01-17T09:45:06.613Z,60.10
2018-01-17T09:46:12.435Z,60.86
2018-01-17T09:47:19.212Z,61.05
2018-01-17T09:48:24.962Z,60.90
2018-01-17T09:49:30.700Z,60.86
2018-01-17T09:50:36.436Z,60.56
2018-01-17T09:51:42.171Z,60.49
2018-01-17T09:52:47.903Z,60.51
2018-01-17T09:53:54.426Z,60.34
2018-01-17T09:55:00.937Z,60.22
2018-01-17T09:56:06.664Z,60.03
2018-01-17T09:57:13.162Z,59.91
2018-01-17T09:58:18.907Z,60.02
2018-01-17T09:59:24.683Z,59.74
2018-01-17T10:00:30.437Z,59.76
2018-01-17T10:01:36.919Z,60.04
2018-01-17T10:02:42.650Z,60.12
2018-01-17T10:03:48.360Z,60.19
2018-01-17T10:04:54.077Z,60.28
2018-01-17T10:05:59.851Z,60.17
2018-01-17T10:07:05.596Z,60.06
2018-01-17T10:08:12.092Z,59.92
2018-01-17T10:09:18.239Z,59.77
2018-01-17T10:10:23.946Z,59.20
2018-01-17T10:11:30.481Z,58.75
2018-01-17T10:12:36.225Z,58.61
2018-01-17T10:13:42.951Z,58.47
2018-01-17T10:14:48.686Z,58.67
2018-01-17T10:15:54.420Z,58.58
2018-01-17T10:17:00.174Z,58.47
2018-01-17T10:18:05.907Z,58.13
2018-01-17T10:19:11.624Z,58.23
2018-01-17T10:20:18.105Z,58.32
2018-01-17T10:21:23.838Z,58.65
2018-01-17T10:22:29.596Z,58.41
2018-01-17T10:23:35.342Z,58.68
2018-01-17T10:24:41.066Z,58.80
2018-01-17T10:25:46.785Z,58.89
2018-01-17T10:26:53.263Z,58.86
2018-01-17T10:27:59.030Z,59.06
2018-01-17T10:29:04.747Z,58.93
2018-01-17T10:30:10.471Z,59.11
2018-01-17T10:31:16.988Z,59.01
2018-01-17T10:32:22.704Z,59.56
2018-01-17T10:33:28.439Z,59.80
2018-01-17T10:34:34.259Z,59.79
2018-01-17T10:35:39.984Z,59.79
2018-01-17T10:36:46.500Z,59.83
2018-01-17T10:37:52.993Z,59.61
2018-01-17T10:38:59.547Z,59.16
2018-01-17T10:40:05.444Z,59.22
2018-01-17T10:41:11.175Z,59.14
2018-01-17T10:42:16.899Z,58.90
2018-01-17T10:43:23.399Z,58.61
2018-01-17T10:44:29.200Z,58.34
2018-01-17T10:45:34.788Z,58.21
2018-01-17T10:46:40.520Z,58.25
2018-01-17T10:47:46.239Z,58.13
2018-01-17T10:48:52.053Z,58.55
2018-01-17T10:49:57.813Z,58.34
2018-01-17T10:51:04.359Z,58.33
2018-01-17T10:52:10.837Z,58.17
2018-01-17T10:53:16.565Z,58.08
2018-01-17T10:54:23.060Z,57.93
2018-01-17T10:55:28.827Z,58.26
2018-01-17T10:56:34.551Z,58.14
2018-01-17T10:57:40.270Z,58.04
2018-01-17T10:58:46.003Z,58.10
2018-01-17T10:59:51.534Z,58.12
2018-01-17T11:00:58.097Z,58.21
2018-01-17T11:02:03.818Z,58.41
2018-01-17T11:03:10.337Z,58.22
2018-01-17T11:04:16.086Z,58.30
2018-01-17T11:05:21.797Z,58.26
2018-01-17T11:06:27.554Z,57.94
2018-01-17T11:07:33.105Z,57.74
2018-01-17T11:08:38.874Z,57.70
2018-01-17T11:09:44.793Z,57.45
2018-01-17T11:10:50.529Z,57.28
2018-01-17T11:11:56.264Z,57.42
2018-01-17T11:13:01.980Z,57.60
2018-01-17T11:14:07.692Z,57.64
2018-01-17T11:15:14.176Z,57.23
2018-01-17T11:16:19.956Z,57.53
2018-01-17T11:17:25.721Z,57.64
2018-01-17T11:18:31.444Z,57.53
2018-01-17T11:19:37.182Z,57.44
2018-01-17T11:20:42.696Z,57.31
2018-01-17T11:21:48.483Z,57.56
2018-01-17T11:22:54.234Z,57.64
2018-01-17T11:24:00.711Z,57.34
2018-01-17T11:25:06.452Z,57.43
2018-01-17T11:26:12.192Z,57.55
2018-01-17T11:27:17.928Z,57.76
2018-01-17T11:28:23.670Z,57.70
2018-01-17T11:29:29.387Z,58.06
2018-01-17T11:30:35.886Z,57.95
2018-01-17T11:31:41.612Z,57.63
2018-01-17T11:32:47.177Z,57.51
2018-01-17T11:33:52.964Z,57.63
2018-01-17T11:34:58.702Z,57.90
2018-01-17T11:36:04.440Z,57.70
2018-01-17T11:37:10.173Z,57.64
2018-01-17T11:38:15.902Z,57.76
2018-01-17T11:39:21.731Z,57.82
2018-01-17T11:40:27.539Z,58.27
2018-01-17T11:41:33.286Z,58.37
2018-01-17T11:42:39.012Z,58.80
2018-01-17T11:43:45.627Z,59.04
2018-01-17T11:44:51.037Z,58.96
2018-01-17T11:45:56.788Z,58.91
2018-01-17T11:47:02.502Z,58.73
2018-01-17T11:48:08.229Z,58.79
2018-01-17T11:49:14.700Z,59.09
2018-01-17T11:50:20.464Z,59.42
2018-01-17T11:51:26.175Z,59.57
2018-01-17T11:52:31.890Z,59.50
2018-01-17T11:53:37.639Z,59.04
2018-01-17T11:54:43.407Z,58.94
2018-01-17T11:55:49.174Z,59.21
2018-01-17T11:56:54.893Z,59.03
2018-01-17T11:58:00.616Z,58.89
2018-01-17T11:59:07.116Z,59.08
2018-01-17T12:00:12.844Z,59.23
2018-01-17T12:01:18.602Z,59.38
2018-01-17T12:02:24.354Z,59.32
2018-01-17T12:03:30.078Z,59.43
2018-01-17T12:04:35.807Z,59.48
2018-01-17T12:05:41.540Z,59.60
2018-01-17T12:06:47.284Z,59.76
2018-01-17T12:07:53.027Z,59.87
2018-01-17T12:08:58.982Z,59.84
2018-01-17T12:10:04.143Z,59.71
2018-01-17T12:11:09.853Z,59.55
2018-01-17T12:12:15.670Z,59.47
2018-01-17T12:13:22.152Z,59.54
2018-01-17T12:14:27.963Z,59.17
2018-01-17T12:15:33.694Z,59.11
2018-01-17T12:16:40.211Z,59.17
2018-01-17T12:17:45.970Z,59.24
2018-01-17T12:18:51.707Z,59.26
2018-01-17T12:19:57.439Z,59.04
2018-01-17T12:21:03.152Z,59.11
2018-01-17T12:22:08.895Z,59.21
2018-01-17T12:23:14.806Z,59.27
2018-01-17T12:24:21.322Z,59.27
2018-01-17T12:25:27.115Z,58.92
2018-01-17T12:26:33.597Z,58.70
2018-01-17T12:27:39.311Z,58.91
2018-01-17T12:28:45.825Z,59.00
2018-01-17T12:29:51.574Z,58.86
2018-01-17T12:30:57.314Z,58.96
2018-01-17T12:32:03.047Z,58.50
2018-01-17T12:33:08.783Z,58.78
2018-01-17T12:34:14.553Z,58.62
2018-01-17T12:35:20.261Z,58.36
2018-01-17T12:36:26.064Z,58.41
2018-01-17T12:37:32.558Z,58.53
2018-01-17T12:38:38.330Z,58.52
2018-01-17T12:39:44.080Z,58.20
2018-01-17T12:40:49.801Z,58.18
2018-01-17T12:41:55.283Z,58.28
2018-01-17T12:43:01.206Z,57.93
2018-01-17T12:44:07.723Z,58.08
2018-01-17T12:45:13.472Z,58.08
2018-01-17T12:46:19.219Z,58.10
2018-01-17T12:47:25.146Z,58.25
2018-01-17T12:48:30.901Z,58.25
2018-01-17T12:49:37.411Z,58.21
2018-01-17T12:50:43.992Z,58.14
2018-01-17T12:51:49.765Z,58.15
2018-01-17T12:52:55.556Z,58.38
2018-01-17T12:54:02.092Z,58.66
2018-01-17T12:55:08.579Z,58.75
2018-01-17T12:56:14.358Z,58.91
2018-01-17T12:57:20.752Z,59.02
2018-01-17T12:58:27.256Z,59.27
2018-01-17T12:59:33.079Z,59.94
2018-01-17T13:00:38.792Z,60.07
2018-01-17T13:01:44.592Z,60.18
2018-01-17T13:02:50.354Z,60.28
2018-01-17T13:03:56.227Z,60.73
2018-01-17T13:05:03.057Z,60.96
2018-01-17T13:06:08.787Z,61.43
2018-01-17T13:07:14.700Z,61.87
2018-01-17T13:08:21.246Z,62.34
2018-01-17T13:09:27.752Z,62.66
2018-01-17T13:10:33.700Z,62.98
2018-01-17T13:11:39.411Z,63.35
2018-01-17T13:12:45.163Z,63.87
2018-01-17T13:13:50.875Z,64.14
2018-01-17T13:14:57.375Z,64.25
2018-01-17T13:16:03.111Z,64.70
2018-01-17T13:17:08.838Z,65.35
2018-01-17T13:18:14.599Z,65.80
2018-01-17T13:19:21.110Z,65.71
2018-01-17T13:20:26.825Z,65.93
2018-01-17T13:21:32.563Z,66.21
2018-01-17T13:22:39.040Z,66.06
2018-01-17T13:23:44.784Z,66.42
2018-01-17T13:24:51.295Z,66.44
2018-01-17T13:25:56.827Z,66.44
2018-01-17T13:27:02.537Z,66.32
2018-01-17T13:28:09.035Z,66.26
2018-01-17T13:29:14.776Z,65.98
2018-01-17T13:30:20.512Z,66.02
2018-01-17T13:31:26.246Z,65.99
2018-01-17T13:32:31.994Z,66.01
2018-01-17T13:33:37.720Z,65.90
2018-01-17T13:34:43.552Z,65.83
2018-01-17T13:35:49.364Z,65.78
2018-01-17T13:36:55.115Z,65.48
2018-01-17T13:38:01.612Z,65.22
2018-01-17T13:39:06.994Z,64.93
2018-01-17T13:40:12.736Z,64.95
2018-01-17T13:41:19.236Z,64.63
2018-01-17T13:42:24.948Z,64.44
2018-01-17T13:43:30.692Z,64.22
2018-01-17T13:44:37.174Z,63.89
2018-01-17T13:45:42.930Z,63.58
2018-01-17T13:46:48.653Z,63.74
2018-01-17T13:47:54.399Z,63.96
2018-01-17T13:49:00.142Z,64.06
2018-01-17T13:50:05.857Z,64.10
2018-01-17T13:51:12.383Z,64.30
2018-01-17T13:52:18.098Z,64.43
2018-01-17T13:53:23.829Z,64.48
2018-01-17T13:54:29.563Z,64.43
2018-01-17T13:55:36.063Z,64.41
2018-01-17T13:56:41.859Z,64.33
2018-01-17T13:57:48.345Z,64.24
2018-01-17T13:58:54.074Z,64.04
2018-01-17T13:59:59.896Z,63.56
2018-01-17T14:01:05.647Z,62.81
2018-01-17T14:02:11.453Z,62.56
2018-01-17T14:03:17.180Z,62.31
2018-01-17T14:04:22.893Z,62.33
2018-01-17T14:05:28.634Z,62.23
2018-01-17T14:06:35.467Z,62.14
2018-01-17T14:07:42.154Z,61.84
2018-01-17T14:08:47.975Z,61.48